createdAt,value
2022-11-16T00:02:00.392Z,65.10
2022-11-16T00:05:03.733Z,60.77
2022-11-16T00:08:06.465Z,62.20
2022-11-16T00:11:11.878Z,62.20
2022-11-16T00:14:14.284Z,61.45
2022-11-16T00:17:16.694Z,66.68
2022-11-16T00:20:19.048Z,63.00
2022-11-16T00:23:21.467Z,61.83
2022-11-16T00:26:24.267Z,59.30
2022-11-16T00:29:27.243Z,63.38
2022-11-16T00:32:29.692Z,59.95
2022-11-16T00:35:32.561Z,63.93
2022-11-16T00:38:35.324Z,62.95
2022-11-16T00:41:37.964Z,59.60
2022-11-16T00:44:40.405Z,63.55
2022-11-16T00:47:42.817Z,59.83
2022-11-16T00:50:45.916Z,55.00
2022-11-16T00:53:49.214Z,64.38
2022-11-16T00:56:53.049Z,61.20
2022-11-16T00:59:56.261Z,66.00
2022-11-16T01:02:58.985Z,66.28
2022-11-16T01:06:05.525Z,65.60
2022-11-16T01:09:07.888Z,68.45
2022-11-16T01:12:10.317Z,70.57
2022-11-16T01:15:13.677Z,73.50
2022-11-16T01:18:17.641Z,76.68
2022-11-16T01:21:21.284Z,77.40
2022-11-16T01:24:25.089Z,86.35
2022-11-16T01:27:27.654Z,84.03
2022-11-16T01:30:31.091Z,79.50
2022-11-16T01:33:40.484Z,85.25
2022-11-16T01:36:48.984Z,87.87
2022-11-16T01:39:52.649Z,73.78
2022-11-16T01:42:55.324Z,69.90
2022-11-16T01:45:57.749Z,80.55
2022-11-16T01:49:02.653Z,75.85
2022-11-16T01:52:08.904Z,77.13
2022-11-16T01:55:13.149Z,84.60
2022-11-16T01:58:36.344Z,79.82
2022-11-16T02:01:52.883Z,78.20
2022-11-16T02:04:58.385Z,76.22
2022-11-16T02:08:55.828Z,71.07
2022-11-16T02:12:12.183Z,74.57
2022-11-16T02:15:39.367Z,78.40
2022-11-16T02:19:04.841Z,74.78
2022-11-16T02:22:26.737Z,71.97
2022-11-16T02:25:40.372Z,72.17
2022-11-16T02:28:45.900Z,75.78
2022-11-16T02:32:06.306Z,68.35
2022-11-16T02:35:31.216Z,68.03
2022-11-16T02:38:40.030Z,75.28
2022-11-16T02:41:44.397Z,70.07
2022-11-16T02:44:50.827Z,74.68
2022-11-16T02:47:56.340Z,71.00
2022-11-16T02:50:58.891Z,64.38
2022-11-16T02:54:08.677Z,67.47
2022-11-16T02:57:28.909Z,68.00
2022-11-16T03:00:38.077Z,70.75
2022-11-16T03:03:43.402Z,72.80
2022-11-16T03:06:46.868Z,76.82
2022-11-16T03:09:50.301Z,80.28
2022-11-16T03:12:52.892Z,81.20
2022-11-16T03:15:56.371Z,83.18
2022-11-16T03:19:03.405Z,85.57
2022-11-16T03:22:15.454Z,79.13
2022-11-16T03:25:20.684Z,83.07
2022-11-16T03:28:32.573Z,85.33
2022-11-16T03:31:49.574Z,86.82
2022-11-16T03:34:59.968Z,88.88
2022-11-16T03:38:05.771Z,85.25
2022-11-16T03:41:09.821Z,88.05
2022-11-16T03:44:14.376Z,88.53
2022-11-16T03:47:17.812Z,84.57
2022-11-16T03:50:21.652Z,86.78
2022-11-16T03:53:24.081Z,87.75
2022-11-16T03:56:26.616Z,92.88
2022-11-16T03:59:30.097Z,97.33
2022-11-16T04:02:33.469Z,97.88
2022-11-16T04:05:54.469Z,94.93
2022-11-16T04:09:15.758Z,80.10
2022-11-16T04:12:39.052Z,106.35
2022-11-16T04:16:00.926Z,113.70
2022-11-16T04:19:22.006Z,109.60
2022-11-16T04:22:53.088Z,96.65
2022-11-16T04:25:55.686Z,107.20
2022-11-16T04:28:59.502Z,118.28
2022-11-16T04:32:21.043Z,101.13
2022-11-16T04:35:42.240Z,96.47
2022-11-16T04:38:46.301Z,129.70
2022-11-16T04:42:09.053Z,155.23
2022-11-16T04:45:46.740Z,147.10
2022-11-16T04:48:50.853Z,95.20
2022-11-16T04:51:54.565Z,150.68
2022-11-16T04:54:59.155Z,134.02
2022-11-16T04:58:03.540Z,124.05
2022-11-16T05:01:06.925Z,145.02
2022-11-16T05:04:10.180Z,130.57
2022-11-16T05:07:14.555Z,172.80
2022-11-16T05:10:19.475Z,138.55
2022-11-16T05:13:21.968Z,135.15
2022-11-16T05:16:26.078Z,195.48
2022-11-16T05:19:48.440Z,162.37
2022-11-16T05:22:56.376Z,182.75
2022-11-16T05:26:00.821Z,190.32
2022-11-16T05:29:04.491Z,162.70
2022-11-16T05:32:07.731Z,174.07
2022-11-16T05:35:10.355Z,147.13
2022-11-16T05:38:14.678Z,143.88
2022-11-16T05:41:22.026Z,112.78
2022-11-16T05:44:25.810Z,112.80
2022-11-16T05:47:28.732Z,118.97
2022-11-16T05:50:34.722Z,156.10
2022-11-16T05:53:46.561Z,131.63
2022-11-16T05:56:55.860Z,142.27
2022-11-16T05:59:59.665Z,104.90
2022-11-16T06:03:03.980Z,153.38
2022-11-16T06:06:08.812Z,127.57
2022-11-16T06:09:12.444Z,131.93
2022-11-16T06:12:15.372Z,155.25
2022-11-16T06:15:18.569Z,146.43
2022-11-16T06:18:21.425Z,164.55
2022-11-16T06:21:25.491Z,217.77
2022-11-16T06:24:29.370Z,160.85
2022-11-16T06:27:32.062Z,174.10
2022-11-16T06:30:34.760Z,140.98
2022-11-16T06:33:38.548Z,110.85
2022-11-16T06:36:46.245Z,137.87
2022-11-16T06:39:49.620Z,116.82
2022-11-16T06:42:52.743Z,122.90
2022-11-16T06:45:57.730Z,103.65
2022-11-16T06:49:00.596Z,124.40
2022-11-16T06:52:03.129Z,130.73
2022-11-16T06:55:07.207Z,173.73
2022-11-16T06:58:11.993Z,121.65
2022-11-16T07:01:17.230Z,122.50
2022-11-16T07:04:22.923Z,85.28
2022-11-16T07:07:31.660Z,90.37
2022-11-16T07:10:35.649Z,91.22
2022-11-16T07:13:39.300Z,94.88
2022-11-16T07:16:44.122Z,109.43
2022-11-16T07:19:48.722Z,92.97
2022-11-16T07:22:51.451Z,99.37
2022-11-16T07:25:54.249Z,112.10
2022-11-16T07:29:10.319Z,98.28
2022-11-16T07:32:17.168Z,106.53
2022-11-16T07:35:49.340Z,103.40
2022-11-16T07:38:52.882Z,93.77
2022-11-16T07:41:56.421Z,104.40
2022-11-16T07:45:24.803Z,97.38
2022-11-16T07:48:33.371Z,105.70
2022-11-16T07:51:54.920Z,95.13
2022-11-16T07:55:20.404Z,86.07
2022-11-16T07:58:28.853Z,98.10
2022-11-16T08:01:33.416Z,87.03
2022-11-16T08:04:38.388Z,82.78
2022-11-16T08:07:40.920Z,84.07
2022-11-16T08:10:43.651Z,74.53
2022-11-16T08:13:47.277Z,88.07
2022-11-16T08:16:49.832Z,101.50
2022-11-16T08:19:54.874Z,92.75
2022-11-16T08:23:01.095Z,88.80
2022-11-16T08:26:09.461Z,91.23
2022-11-16T08:29:15.186Z,75.72
2022-11-16T08:32:23.290Z,101.47
2022-11-16T08:35:25.896Z,71.53
2022-11-16T08:38:28.663Z,79.28
2022-11-16T08:41:31.478Z,76.67
2022-11-16T08:44:35.283Z,75.40
2022-11-16T08:47:41.512Z,71.97
2022-11-16T08:51:10.436Z,72.03
2022-11-16T08:54:06.718Z,69.60
2022-11-16T08:57:12.406Z,66.40
2022-11-16T09:00:19.337Z,64.97
2022-11-16T09:03:23.502Z,74.68
2022-11-16T09:06:27.510Z,66.82
2022-11-16T09:09:29.932Z,82.47
2022-11-16T09:12:34.110Z,92.07
2022-11-16T09:15:36.850Z,71.90
2022-11-16T09:18:39.650Z,65.65
2022-11-16T09:21:42.656Z,64.05
2022-11-16T09:24:45.213Z,72.57
2022-11-16T09:27:47.661Z,64.30
2022-11-16T09:30:51.343Z,62.40
2022-11-16T09:33:55.365Z,60.25
2022-11-16T09:36:57.934Z,59.50
2022-11-16T09:40:00.539Z,53.72
2022-11-16T09:43:18.218Z,51.57
2022-11-16T09:46:20.614Z,56.45
2022-11-16T09:49:26.840Z,56.60
2022-11-16T09:52:49.508Z,51.03
2022-11-16T09:55:59.923Z,48.30
2022-11-16T09:59:04.878Z,44.07
2022-11-16T10:02:29.606Z,42.65
2022-11-16T10:05:39.239Z,47.95
2022-11-16T10:08:45.585Z,46.20
2022-11-16T10:12:06.803Z,53.50
2022-11-16T10:15:36.334Z,47.80
2022-11-16T10:19:14.983Z,47.75
2022-11-16T10:22:24.140Z,64.18
2022-11-16T10:25:53.504Z,46.47
2022-11-16T10:29:05.216Z,47.50
2022-11-16T10:32:28.988Z,49.97
2022-11-16T10:35:42.198Z,46.97
2022-11-16T10:38:45.562Z,43.53
2022-11-16T10:41:51.480Z,51.22
2022-11-16T10:44:58.696Z,46.65
2022-11-16T10:48:39.568Z,47.83
2022-11-16T10:51:43.112Z,49.35
2022-11-16T10:54:45.655Z,50.00
2022-11-16T10:58:05.318Z,50.83
2022-11-16T11:01:12.582Z,60.30
2022-11-16T11:04:16.416Z,45.23
2022-11-16T11:07:24.638Z,52.15
2022-11-16T11:10:33.471Z,51.97
2022-11-16T11:13:36.344Z,51.65
2022-11-16T11:16:41.401Z,51.22
2022-11-16T11:19:44.804Z,49.43
2022-11-16T11:22:56.476Z,42.55
2022-11-16T11:26:00.337Z,46.25
2022-11-16T11:29:09.395Z,46.85
2022-11-16T11:32:19.460Z,49.15
2022-11-16T11:35:34.274Z,54.67
2022-11-16T11:39:15.325Z,51.05
2022-11-16T11:42:18.040Z,52.95
2022-11-16T11:45:22.793Z,82.32
2022-11-16T11:48:47.812Z,49.65
2022-11-16T11:51:52.304Z,52.73
2022-11-16T11:54:55.837Z,53.45
2022-11-16T11:57:59.544Z,42.30
2022-11-16T12:01:13.671Z,45.95
2022-11-16T12:04:53.517Z,46.15
2022-11-16T12:08:17.265Z,52.30
2022-11-16T12:11:25.640Z,54.30
2022-11-16T12:15:08.646Z,53.42
2022-11-16T12:18:29.348Z,59.25
2022-11-16T12:21:48.476Z,50.72
2022-11-16T12:25:31.408Z,54.80
2022-11-16T12:28:51.335Z,55.85
2022-11-16T12:32:25.580Z,61.90
2022-11-16T12:35:48.815Z,54.92
2022-11-16T12:38:59.545Z,79.70
2022-11-16T12:42:20.841Z,148.23
2022-11-16T12:45:32.588Z,108.00
2022-11-16T12:48:59.125Z,101.32
2022-11-16T12:52:23.494Z,89.78
2022-11-16T12:55:32.907Z,83.43
2022-11-16T12:59:04.471Z,64.90
2022-11-16T13:02:30.053Z,66.70
2022-11-16T13:05:48.184Z,77.57
2022-11-16T13:09:11.538Z,82.93
2022-11-16T13:12:17.380Z,70.68
2022-11-16T13:15:21.973Z,79.70
2022-11-16T13:18:25.369Z,91.55
2022-11-16T13:21:32.295Z,93.43
2022-11-16T13:24:58.740Z,95.22
2022-11-16T13:28:29.378Z,87.20
2022-11-16T13:31:38.781Z,72.13
2022-11-16T13:34:41.549Z,83.82
2022-11-16T13:37:51.947Z,83.85
2022-11-16T13:41:32.537Z,93.47
2022-11-16T13:44:35.086Z,95.68
2022-11-16T13:47:37.587Z,98.57
2022-11-16T13:50:40.178Z,107.45
2022-11-16T13:57:31.929Z,127.90
2022-11-16T14:00:39.592Z,100.60
2022-11-16T14:03:43.527Z,98.87
2022-11-16T14:06:45.904Z,108.43
2022-11-16T14:09:51.430Z,118.82
2022-11-16T14:12:54.510Z,123.38
2022-11-16T14:16:14.974Z,109.00
2022-11-16T14:19:49.110Z,112.87
2022-11-16T14:22:57.212Z,120.13
2022-11-16T14:26:02.561Z,99.10
2022-11-16T14:29:27.866Z,93.95
2022-11-16T14:32:41.271Z,100.28
2022-11-16T14:35:51.047Z,100.47
2022-11-16T14:38:53.542Z,102.95
2022-11-16T14:42:02.053Z,106.88
2022-11-16T14:45:13.557Z,114.85
2022-11-16T14:48:18.656Z,119.88
2022-11-16T14:51:41.379Z,108.57
2022-11-16T14:54:55.748Z,121.57
2022-11-16T14:58:08.792Z,117.43
2022-11-16T15:01:14.809Z,112.78
2022-11-16T15:04:18.067Z,121.35
2022-11-16T15:07:23.083Z,125.80
2022-11-16T15:10:28.102Z,130.45
2022-11-16T15:13:30.494Z,137.73
2022-11-16T15:16:32.832Z,132.43
2022-11-16T15:19:35.836Z,126.07
2022-11-16T15:22:40.633Z,124.63
2022-11-16T15:25:45.092Z,109.45
2022-11-16T15:28:50.195Z,125.15
2022-11-16T15:31:52.691Z,123.28
2022-11-16T15:34:55.096Z,128.60
2022-11-16T15:38:16.275Z,131.17
2022-11-16T15:41:19.406Z,131.90
2022-11-16T15:44:22.657Z,133.30
2022-11-16T15:47:25.313Z,140.23
2022-11-16T15:50:28.107Z,156.00
2022-11-16T15:53:44.707Z,142.47
2022-11-16T15:56:47.198Z,140.23
2022-11-16T15:59:54.596Z,134.73
2022-11-16T16:03:04.190Z,141.40
2022-11-16T16:06:08.580Z,126.78
2022-11-16T16:09:14.601Z,120.23
2022-11-16T16:12:24.673Z,107.95
2022-11-16T16:15:36.149Z,128.95
2022-11-16T16:18:43.183Z,152.73
2022-11-16T16:21:46.437Z,138.13
2022-11-16T16:24:48.859Z,173.43
2022-11-16T16:27:51.256Z,176.35
2022-11-16T16:30:53.579Z,167.40
2022-11-16T16:33:56.086Z,153.25
2022-11-16T16:36:58.421Z,176.23
2022-11-16T16:40:00.853Z,195.27
2022-11-16T16:43:03.252Z,205.15
2022-11-16T16:46:05.938Z,220.07
2022-11-16T16:49:08.341Z,229.43
2022-11-16T16:52:12.117Z,219.55
2022-11-16T16:55:14.625Z,186.90
2022-11-16T16:58:17.036Z,220.38
2022-11-16T17:01:19.450Z,201.23
2022-11-16T17:04:22.087Z,184.98
2022-11-16T17:07:25.183Z,192.30
2022-11-16T17:10:27.679Z,210.40
2022-11-16T17:13:30.333Z,193.52
2022-11-16T17:16:32.849Z,181.45
2022-11-16T17:19:35.656Z,201.02
2022-11-16T17:22:38.316Z,200.30
2022-11-16T17:25:41.411Z,171.83
2022-11-16T17:28:44.290Z,207.05
2022-11-16T17:31:47.617Z,189.75
2022-11-16T17:34:50.210Z,162.32
2022-11-16T17:37:52.841Z,245.18
2022-11-16T17:41:04.004Z,196.87
2022-11-16T17:44:06.857Z,201.98
2022-11-16T17:47:09.224Z,164.82
2022-11-16T17:50:11.982Z,162.43
2022-11-16T17:53:14.545Z,192.43
2022-11-16T17:56:19.875Z,168.50
2022-11-16T17:59:27.975Z,158.52
2022-11-16T18:02:32.475Z,144.63
2022-11-16T18:05:35.102Z,155.98
2022-11-16T18:08:37.883Z,157.15
2022-11-16T18:11:40.406Z,152.47
2022-11-16T18:14:59.952Z,167.15
2022-11-16T18:18:06.058Z,135.68
2022-11-16T18:21:09.626Z,146.65
2022-11-16T18:24:12.703Z,145.65
2022-11-16T18:27:15.462Z,148.37
2022-11-16T18:30:18.217Z,160.13
2022-11-16T18:33:20.576Z,143.93
2022-11-16T18:36:23.037Z,142.55
2022-11-16T18:39:25.723Z,132.00
2022-11-16T18:42:28.367Z,117.73
2022-11-16T18:45:31.096Z,153.00
2022-11-16T18:48:33.845Z,154.30
2022-11-16T18:51:36.489Z,128.45
2022-11-16T18:54:39.146Z,153.40
2022-11-16T18:57:41.756Z,141.37
2022-11-16T19:00:46.040Z,145.40
2022-11-16T19:03:48.702Z,148.48
2022-11-16T19:06:51.274Z,191.10
2022-11-16T19:09:54.083Z,221.27
2022-11-16T19:12:57.419Z,187.63
2022-11-16T19:15:59.883Z,229.35
2022-11-16T19:19:03.009Z,219.23
2022-11-16T19:22:05.335Z,226.43
2022-11-16T19:25:08.205Z,232.75
2022-11-16T19:28:10.787Z,220.50
2022-11-16T19:31:16.202Z,186.27
2022-11-16T19:34:19.054Z,223.35
2022-11-16T19:37:21.635Z,225.43
2022-11-16T19:40:25.321Z,218.55
2022-11-16T19:43:28.124Z,193.50
2022-11-16T19:46:31.999Z,189.40
2022-11-16T19:49:34.951Z,188.88
2022-11-16T19:52:37.940Z,202.30
2022-11-16T19:55:41.782Z,183.40
2022-11-16T19:58:44.611Z,214.57
2022-11-16T20:01:47.301Z,189.00
2022-11-16T20:04:49.809Z,207.18
2022-11-16T20:07:52.647Z,208.40
2022-11-16T20:10:55.279Z,172.02
2022-11-16T20:13:59.128Z,169.10
2022-11-16T20:17:01.990Z,146.50
2022-11-16T20:20:04.999Z,171.52
2022-11-16T20:23:07.661Z,191.25
2022-11-16T20:26:11.053Z,166.85
2022-11-16T20:29:15.654Z,136.97
2022-11-16T20:32:18.143Z,176.98
2022-11-16T20:35:20.752Z,160.93
2022-11-16T20:38:23.433Z,140.98
2022-11-16T20:41:27.927Z,157.23
2022-11-16T20:44:31.271Z,139.63
2022-11-16T20:47:34.082Z,146.68
2022-11-16T20:50:36.568Z,142.82
2022-11-16T20:53:39.172Z,112.93
2022-11-16T20:56:41.706Z,128.15
2022-11-16T20:59:44.087Z,102.70
2022-11-16T21:02:46.672Z,114.18
2022-11-16T21:05:52.029Z,110.38
2022-11-16T21:08:55.388Z,106.53
2022-11-16T21:12:16.283Z,111.50
2022-11-16T21:15:19.056Z,98.27
2022-11-16T21:18:24.238Z,86.63
2022-11-16T21:21:29.732Z,113.28
2022-11-16T21:24:32.247Z,94.70
2022-11-16T21:27:34.712Z,98.82
2022-11-16T21:30:37.197Z,85.30
2022-11-16T21:33:39.678Z,82.40
2022-11-16T21:36:42.143Z,80.60
2022-11-16T21:39:44.576Z,67.20
2022-11-16T21:42:47.478Z,78.32
2022-11-16T21:45:51.043Z,73.37
2022-11-16T21:48:55.368Z,76.60
2022-11-16T21:51:57.898Z,68.90
2022-11-16T21:55:00.377Z,67.25
2022-11-16T21:58:03.642Z,60.40
2022-11-16T22:01:06.461Z,61.87
2022-11-16T22:04:27.758Z,58.67
2022-11-16T22:07:32.996Z,51.03
2022-11-16T22:10:41.839Z,59.25
2022-11-16T22:13:44.246Z,59.85
2022-11-16T22:16:46.549Z,58.67
2022-11-16T22:19:49.047Z,62.95
2022-11-16T22:22:51.461Z,54.47
2022-11-16T22:25:54.566Z,58.70
2022-11-16T22:28:58.363Z,54.90
2022-11-16T22:32:00.778Z,48.20
2022-11-16T22:35:03.311Z,50.10
2022-11-16T22:38:05.778Z,44.15
2022-11-16T22:41:08.102Z,39.63
2022-11-16T22:44:10.488Z,36.92
2022-11-16T22:47:12.903Z,44.60
2022-11-16T22:50:15.632Z,38.88
2022-11-16T22:53:18.003Z,39.83
2022-11-16T22:56:20.675Z,38.75
2022-11-16T22:59:23.073Z,37.92
2022-11-16T23:02:25.431Z,32.97
2022-11-16T23:05:27.771Z,35.67
2022-11-16T23:08:30.252Z,36.10
2022-11-16T23:11:50.987Z,32.85
2022-11-16T23:15:12.071Z,31.92
2022-11-16T23:18:15.001Z,31.83
2022-11-16T23:21:35.967Z,32.90
2022-11-16T23:24:56.992Z,31.13
2022-11-16T23:28:12.343Z,29.02
2022-11-16T23:31:14.727Z,27.75
2022-11-16T23:34:17.087Z,25.37
2022-11-16T23:37:19.478Z,38.58
2022-11-16T23:40:23.949Z,34.72
2022-11-16T23:43:44.630Z,34.08
2022-11-16T23:46:47.084Z,37.53
2022-11-16T23:49:49.724Z,42.13
2022-11-16T23:52:52.219Z,31.67
2022-11-16T23:55:54.561Z,34.85
2022-11-16T23:59:00.086Z,31.25
